logo
Search for airport 
image banner adimage banner adimage banner ad
image banner ad

YMLBG - Marlborough

Located in , Australia

ICAO - , IATA -

Data provided by Airmate  

General information

Coordinates: S42°9'47" E146°28'56"
Elevation is 2222 feet MSL.
Magnetic variation is 14° East
View others Airports in Tasmania

Operational data

Special qualification required
Current time UTC:
Current local time:
Weather at : - ( 0 km )
METAR: KAFP 281932Z AUTO 34004KT 10SM SCT065 SCT090 30/13 A2991 RMK AO2 T03040130
View NOTAMs / SUP AIP / TFR affecting this airport [VIEW]
Communications frequencies: [VIEW]

Runways:

RWY identifierQFULength (ft)Width (ft)SurfaceLDA (ft)
30315°182244GRAS
12135°182244GRAS

Airport contact information

Address: Australia

Other aviation service providers

Aviation club (not for profit)

Sydney Skydivers

Sydney Skydivers

Satellite view of YMLBG